Data for 02/01/2006

Time Sea-Level Adjusted Pressure Absolute Pressure Temperature Relative Humidity Dew Point   
(mb) (inHg) (mb) (inHg) (C) (F) (%) (C) (F)
00:05 1007 29.74 836 24.69 0.9 33.7 49 -8.7 16.4
00:10 1007 29.74 836 24.69 1.2 34.1 48 -8.8 16.2
00:15 1006 29.71 836 24.69 1.1 34.1 47 -8.9 15.9
00:20 1006 29.71 835 24.66 1.1 34 47 -8.9 15.9
00:25 1006 29.71 835 24.66 1.2 34.2 47 -8.7 16.3
00:30 1006 29.71 835 24.66 1.2 34.2 48 -8.7 16.3
00:35 1006 29.71 835 24.66 1.3 34.4 47 -8.8 16.1
00:40 1006 29.71 835 24.66 1.5 34.7 47 -8.7 16.3
00:45 1006 29.71 835 24.66 1.5 34.6 49 -8 17.6
00:50 1005 29.68 835 24.66 1.3 34.3 48 -8.5 16.7
00:55 1005 29.68 834 24.63 1.6 34.8 47 -8.5 16.7
01:00 1005 29.68 834 24.63 1.4 34.5 50 -8 17.7
01:05 1005 29.68 834 24.63 0.3 32.6 52 -8.4 16.9
01:10 1005 29.68 834 24.63 0.2 32.4 52 -8.5 16.7
01:15 1005 29.68 834 24.63 0.3 32.5 51 -8.7 16.4
01:20 1005 29.68 834 24.63 0.5 32.9 50 -8.7 16.3
01:25 1005 29.68 834 24.63 0.9 33.6 50 -8.3 17
01:30 1005 29.68 834 24.63 1.2 34.1 49 -8.5 16.7
01:35 1005 29.68 834 24.63 1.4 34.6 47 -8.7 16.4
01:40 1005 29.68 834 24.63 1.7 35 48 -8.3 17.1
01:45 1005 29.68 834 24.63 1.6 34.8 46 -8.8 16.2
01:50 1005 29.68 834 24.63 1.6 34.9 49 -8 17.6
01:55 1005 29.68 834 24.63 1.3 34.3 51 -7.7 18.1
02:00 1005 29.68 834 24.63 0.6 33.1 53 -7.9 17.8
02:05 1005 29.68 834 24.63 0.5 32.9 53 -8.1 17.5
02:10 1005 29.68 834 24.63 1 33.7 52 -7.9 17.8
02:15 1005 29.68 834 24.63 1.1 33.9 51 -8 17.6
02:20 1005 29.68 834 24.63 1.3 34.3 49 -8.2 17.2
02:25 1004 29.65 834 24.63 1.4 34.6 50 -7.9 17.9
02:30 1005 29.68 834 24.63 1.5 34.6 49 -8.2 17.2
02:35 1005 29.68 834 24.63 1.4 34.5 51 -7.7 18.2
02:40 1005 29.68 834 24.63 1.2 34.2 53 -7.4 18.6
02:45 1005 29.68 834 24.63 1.1 34 51 -7.9 17.8
02:50 1005 29.68 834 24.63 1.3 34.3 51 -7.8 18
02:55 1005 29.68 834 24.63 1.4 34.5 50 -7.9 17.7
03:00 1005 29.68 834 24.63 1.4 34.5 51 -7.7 18.1
03:05 1005 29.68 834 24.63 1.4 34.6 49 -8.1 17.5
03:10 1005 29.68 834 24.63 1.8 35.2 48 -8 17.6
03:15 1005 29.68 834 24.63 1.6 34.8 51 -7.5 18.5
03:20 1004 29.65 834 24.63 1.3 34.4 51 -7.8 18
03:25 1004 29.65 834 24.63 1.3 34.4 51 -7.8 17.9
03:30 1004 29.65 833 24.6 1.3 34.3 51 -7.8 18
03:35 1004 29.65 833 24.6 1.5 34.6 51 -7.6 18.3
03:40 1004 29.65 833 24.6 1.5 34.7 52 -7.4 18.7
03:45 1004 29.65 833 24.6 1 33.7 54 -7.3 18.9
03:50 1004 29.65 833 24.6 0.4 32.7 56 -7.5 18.6
03:55 1004 29.65 833 24.6 0.3 32.6 54 -7.9 17.7
04:00 1004 29.65 833 24.6 0.5 32.9 50 -8.7 16.4
04:05 1004 29.65 833 24.6 1.2 34.1 48 -8.7 16.3
04:10 1004 29.65 833 24.6 1.6 35 48 -8.2 17.3
04:15 1004 29.65 833 24.6 1.7 35.1 49 -8 17.6
04:20 1004 29.65 834 24.63 2 35.6 49 -7.8 18
04:25 1004 29.65 833 24.6 2.4 36.3 48 -7.6 18.2
04:30 1004 29.65 833 24.6 2.5 36.5 49 -7.2 19
04:35 1004 29.65 833 24.6 2.6 36.7 49 -7.1 19.1
04:40 1004 29.65 834 24.63 2.5 36.6 50 -6.9 19.6
04:45 1004 29.65 833 24.6 2.4 36.4 50 -6.9 19.6
04:50 1004 29.65 833 24.6 2.3 36.2 51 -6.7 20
04:55 1004 29.65 833 24.6 2.4 36.3 50 -7.1 19.3
05:00 1004 29.65 833 24.6 2.8 37.1 48 -7.2 19
05:05 1004 29.65 833 24.6 3.1 37.6 47 -7.1 19.2
05:10 1004 29.65 833 24.6 3.3 37.9 48 -6.8 19.7
05:15 1004 29.65 833 24.6 3.4 38.1 47 -6.9 19.6
05:20 1004 29.65 833 24.6 3.4 38.1 49 -6.4 20.5
05:25 1004 29.65 833 24.6 3.2 37.7 49 -6.5 20.3
05:30 1004 29.65 833 24.6 3.1 37.5 50 -6.5 20.4
05:35 1004 29.65 833 24.6 3.1 37.5 49 -6.7 20
05:40 1004 29.65 833 24.6 3 37.3 49 -6.8 19.7
05:45 1004 29.65 833 24.6 3.1 37.6 48 -6.9 19.6
05:50 1004 29.65 833 24.6 3.3 37.9 48 -6.9 19.7
05:55 1004 29.65 833 24.6 3.3 38 47 -6.8 19.7
06:00 1004 29.65 834 24.63 3.4 38.2 48 -6.5 20.4
06:05 1004 29.65 834 24.63 3.4 38.1 50 -5.9 21.3
06:10 1004 29.65 833 24.6 3.3 37.9 51 -5.9 21.4
06:15 1004 29.65 833 24.6 3.5 38.2 51 -5.8 21.6
06:20 1004 29.65 833 24.6 3.5 38.3 52 -5.6 22
06:25 1004 29.65 833 24.6 3.4 38 53 -5.4 22.3
06:30 1004 29.65 833 24.6 3.3 38 53 -5.4 22.2
06:35 1004 29.65 834 24.63 3.4 38.2 51 -5.7 21.8
06:40 1004 29.65 833 24.6 3.6 38.5 51 -5.5 22.1
06:45 1004 29.65 833 24.6 3.5 38.4 52 -5.3 22.4
06:50 1004 29.65 833 24.6 3.4 38.1 54 -5 22.9
06:55 1004 29.65 833 24.6 3.5 38.3 51 -5.6 21.9
07:00 1004 29.65 833 24.6 3.5 38.3 50 -5.9 21.3
07:05 1004 29.65 833 24.6 3.6 38.6 51 -5.6 22
07:10 1004 29.65 833 24.6 3.3 38 53 -5.3 22.5
07:15 1004 29.65 833 24.6 3.3 37.9 53 -5.3 22.4
07:20 1004 29.65 833 24.6 3.2 37.8 53 -5.4 22.3
07:25 1004 29.65 833 24.6 3.2 37.8 54 -5.2 22.6
07:30 1003 29.62 833 24.6 3.3 38 53 -5.4 22.3
07:35 1003 29.62 833 24.6 3.5 38.3 51 -5.7 21.8
07:40 1004 29.65 833 24.6 3.7 38.7 51 -5.4 22.3
07:45 1004 29.65 833 24.6 3.5 38.3 53 -5.2 22.6
07:50 1004 29.65 833 24.6 3.3 37.9 54 -5.2 22.7
07:55 1003 29.62 833 24.6 3.2 37.7 54 -5.2 22.7
08:00 1003 29.62 833 24.6 3.1 37.6 54 -5.3 22.4
08:05 1004 29.65 833 24.6 3 37.5 54 -5.4 22.3
08:10 1004 29.65 833 24.6 3.1 37.6 55 -5.1 22.8
08:15 1004 29.65 833 24.6 3 37.4 55 -5.1 22.8
08:20 1004 29.65 833 24.6 2.8 37.1 56 -5.1 22.8
08:25 1004 29.65 833 24.6 2.8 37 57 -4.9 23.3
08:30 1004 29.65 833 24.6 2.8 37 57 -4.9 23.2
08:35 1004 29.65 833 24.6 2.9 37.2 56 -4.9 23.1
08:40 1004 29.65 833 24.6 3 37.4 56 -4.8 23.3
08:45 1004 29.65 833 24.6 3 37.4 56 -4.9 23.2
08:50 1004 29.65 833 24.6 3 37.4 56 -4.8 23.3
08:55 1004 29.65 833 24.6 3 37.4 56 -5 23
09:00 1004 29.65 833 24.6 2.9 37.1 56 -5 23
09:05 1004 29.65 833 24.6 3 37.4 54 -5.4 22.2
09:10 1004 29.65 833 24.6 3.3 38 51 -5.8 21.6
09:15 1004 29.65 833 24.6 3.6 38.5 50 -5.8 21.6
09:20 1004 29.65 833 24.6 3.7 38.7 49 -6 21.3
09:25 1004 29.65 833 24.6 3.9 39 48 -6.2 20.8
09:30 1004 29.65 833 24.6 4 39.2 48 -6 21.2
09:35 1004 29.65 833 24.6 4.1 39.4 45 -6.6 20.1
09:40 1004 29.65 833 24.6 4.3 39.7 44 -6.8 19.8
09:45 1004 29.65 833 24.6 4.4 40 45 -6.5 20.3
09:50 1004 29.65 833 24.6 4.5 40.1 43 -7 19.5
09:55 1004 29.65 833 24.6 4.5 40.1 43 -7 19.4
10:00 1004 29.65 833 24.6 4.6 40.3 41 -7.6 18.3
10:05 1004 29.65 833 24.6 4.7 40.5 40 -7.6 18.3
10:10 1004 29.65 833 24.6 4.9 40.8 41 -7.4 18.8
10:15 1004 29.65 833 24.6 4.9 40.8 42 -7 19.4
10:20 1004 29.65 833 24.6 5 40.9 42 -6.9 19.6
10:25 1004 29.65 833 24.6 5 41 44 -6.2 20.8
10:30 1004 29.65 833 24.6 4.9 40.9 43 -6.6 20
10:35 1004 29.65 833 24.6 5 41 42 -7 19.5
10:40 1004 29.65 833 24.6 5.3 41.6 40 -7.2 19
10:45 1004 29.65 833 24.6 5.4 41.6 36 -8.6 16.5
10:50 1004 29.65 833 24.6 5.4 41.8 37 -8.1 17.4
10:55 1004 29.65 833 24.6 5.5 42 37 -8.1 17.5
11:00 1004 29.65 833 24.6 5.4 41.8 37 -8.2 17.2
11:05 1004 29.65 833 24.6 5.4 41.8 38 -7.9 17.8
11:10 1004 29.65 833 24.6 5.5 41.8 38 -7.6 18.3
11:15 1004 29.65 833 24.6 5.5 42 35 -8.7 16.3
11:20 1004 29.65 833 24.6 5.5 41.9 36 -8.6 16.6
11:25 1004 29.65 833 24.6 5.4 41.7 34 -9.1 15.5
11:30 1004 29.65 833 24.6 5.4 41.7 38 -7.8 17.9
11:35 1004 29.65 833 24.6 5.5 41.9 35 -8.6 16.5
11:40 1004 29.65 833 24.6 5.5 41.9 35 -8.7 16.3
11:45 1004 29.65 833 24.6 5.8 42.4 35 -8.6 16.5
11:50 1004 29.65 833 24.6 5.8 42.4 37 -7.8 18
11:55 1004 29.65 833 24.6 5.6 42.1 36 -8.2 17.3
12:00 1004 29.65 833 24.6 5.9 42.6 34 -8.9 16
12:05 1004 29.65 833 24.6 6 42.9 35 -8.3 17.1
12:10 1004 29.65 833 24.6 6.1 43 33 -8.9 16
12:15 1004 29.65 833 24.6 6.1 43.1 32 -9.4 15.1
12:20 1004 29.65 833 24.6 6.2 43.1 31 -9.8 14.4
12:25 1004 29.65 833 24.6 6.3 43.3 31 -9.7 14.5
12:30 1004 29.65 833 24.6 6.2 43.2 31 -9.9 14.2
12:35 1004 29.65 833 24.6 6.1 43 31 -9.7 14.5
12:40 1004 29.65 833 24.6 6 42.8 33 -9 15.7
12:45 1004 29.65 833 24.6 6 42.8 31 -9.8 14.3
12:50 1004 29.65 833 24.6 6.2 43.1 31 -9.6 14.8
12:55 1004 29.65 833 24.6 6.2 43.2 31 -9.7 14.6
13:00 1004 29.65 833 24.6 6.2 43.2 31 -9.6 14.7
13:05 1004 29.65 833 24.6 6.2 43.1 32 -9.3 15.3
13:10 1004 29.65 833 24.6 6.1 43 32 -9.5 14.8
13:15 1004 29.65 833 24.6 6.2 43.2 30 -10.2 13.7
13:20 1004 29.65 833 24.6 6.1 43 31 -9.7 14.5
13:25 1004 29.65 833 24.6 6.2 43.1 31 -9.5 14.8
13:30 1004 29.65 833 24.6 6 42.8 32 -9.5 15
13:35 1004 29.65 833 24.6 6.1 43 30 -10.1 13.7
13:40 1004 29.65 833 24.6 6.2 43.1 32 -9.4 15.2
13:45 1004 29.65 834 24.63 6.2 43.2 29 -10.7 12.7
13:50 1004 29.65 834 24.63 6.5 43.7 29 -10.3 13.4
13:55 1004 29.65 834 24.63 6.5 43.7 29 -10.4 13.3
14:00 1004 29.65 834 24.63 6.3 43.4 29 -10.7 12.8
14:05 1004 29.65 834 24.63 6.5 43.7 29 -10.3 13.5
14:10 1004 29.65 834 24.63 6.7 44.1 27 -10.8 12.6
14:15 1005 29.68 834 24.63 6.6 43.9 30 -9.9 14.1
14:20 1005 29.68 834 24.63 6.6 44 29 -10.4 13.3
14:25 1005 29.68 834 24.63 6.7 44.1 31 -9.2 15.5
14:30 1005 29.68 834 24.63 6.6 43.9 32 -9.1 15.6
14:35 1005 29.68 834 24.63 6.7 44.1 30 -9.8 14.4
14:40 1005 29.68 834 24.63 6.9 44.3 30 -9.5 14.9
14:45 1005 29.68 834 24.63 6.7 44 28 -10.7 12.8
14:50 1005 29.68 834 24.63 6.2 43.2 29 -10.5 13
14:55 1005 29.68 834 24.63 6.3 43.3 31 -9.6 14.7
15:00 1005 29.68 834 24.63 6.3 43.3 30 -9.9 14.2
15:05 1005 29.68 834 24.63 6 42.7 31 -9.9 14.3
15:10 1005 29.68 834 24.63 5.8 42.5 31 -9.9 14.2
15:15 1005 29.68 834 24.63 5.5 41.9 29 -11.1 12
15:20 1005 29.68 834 24.63 5.2 41.3 29 -11.3 11.7
15:25 1005 29.68 834 24.63 5 41 31 -11 12.2
15:30 1005 29.68 834 24.63 4.9 40.9 32 -10.6 13
15:35 1005 29.68 834 24.63 5.3 41.5 31 -10.7 12.7
15:40 1005 29.68 834 24.63 5.2 41.3 31 -10.5 13
15:45 1005 29.68 834 24.63 5.1 41.1 32 -10.2 13.6
15:50 1005 29.68 834 24.63 5.1 41.1 32 -10.3 13.4
15:55 1005 29.68 834 24.63 5.2 41.4 31 -10.7 12.8
16:00 1005 29.68 834 24.63 5.3 41.6 28 -11.8 10.7
16:05 1005 29.68 834 24.63 5 41 30 -11.2 11.8
16:10 1005 29.68 835 24.66 4.6 40.4 32 -10.9 12.5
16:15 1005 29.68 835 24.66 4.7 40.4 31 -11.2 11.8
16:20 1005 29.68 834 24.63 5 41 30 -11.2 11.8
16:25 1005 29.68 835 24.66 5.1 41.1 31 -10.7 12.7
16:30 1005 29.68 835 24.66 4.9 40.8 32 -10.6 12.9
16:35 1006 29.71 835 24.66 4.6 40.3 33 -10.2 13.6
16:40 1006 29.71 835 24.66 4.5 40 34 -10 14
16:45 1006 29.71 835 24.66 4.2 39.5 35 -10.1 13.8
16:50 1006 29.71 835 24.66 4 39.1 35 -10.3 13.5
16:55 1006 29.71 835 24.66 3.9 39 36 -9.8 14.4
17:00 1006 29.71 835 24.66 3.9 39 36 -9.9 14.2
17:05 1006 29.71 835 24.66 4 39.1 36 -9.9 14.2
17:10 1006 29.71 835 24.66 3.9 38.9 38 -9 15.7
17:15 1006 29.71 835 24.66 3.6 38.5 40 -8.8 16.2
17:20 1006 29.71 835 24.66 3.4 38.1 40 -8.9 16
17:25 1006 29.71 835 24.66 3.3 38 39 -9.3 15.3
17:30 1006 29.71 836 24.69 3.3 38 40 -9.1 15.6
17:35 1006 29.71 836 24.69 3.2 37.8 42 -8.7 16.4
17:40 1006 29.71 836 24.69 3 37.5 41 -9.1 15.7
17:45 1007 29.74 836 24.69 2.9 37.2 40 -9.3 15.3
17:50 1007 29.74 836 24.69 2.9 37.1 40 -9.4 15.2
17:55 1007 29.74 836 24.69 2.8 37 41 -9.3 15.2
18:00 1007 29.74 836 24.69 2.8 37 41 -9.3 15.3
18:05 1007 29.74 836 24.69 2.6 36.7 42 -9.1 15.6
18:10 1007 29.74 836 24.69 2.6 36.6 42 -9.1 15.6
18:15 1007 29.74 836 24.69 2.5 36.4 41 -9.6 14.8
18:20 1007 29.74 836 24.69 2.4 36.4 43 -9 15.8
18:25 1007 29.74 836 24.69 2.4 36.3 41 -9.4 15
18:30 1007 29.74 836 24.69 2.4 36.3 41 -9.5 14.8
18:35 1007 29.74 836 24.69 2.4 36.4 41 -9.6 14.7
18:40 1007 29.74 836 24.69 2.4 36.3 40 -9.8 14.4
18:45 1007 29.74 836 24.69 2.4 36.4 40 -9.8 14.4
18:50 1007 29.74 837 24.72 2.5 36.5 41 -9.5 14.9
18:55 1007 29.74 837 24.72 2.4 36.2 41 -9.7 14.6
19:00 1007 29.74 837 24.72 2.3 36.1 42 -9.4 15
19:05 1007 29.74 837 24.72 2 35.6 43 -9.2 15.4
19:10 1008 29.77 837 24.72 1.9 35.5 44 -9 15.8
19:15 1008 29.77 837 24.72 2 35.5 45 -8.7 16.4
19:20 1008 29.77 837 24.72 1.7 35 45 -8.9 16
19:25 1008 29.77 837 24.72 1.7 35 44 -9.3 15.3
19:30 1008 29.77 837 24.72 1.8 35.2 44 -9.2 15.4
19:35 1008 29.77 837 24.72 1.9 35.4 44 -9.2 15.5
19:40 1008 29.77 837 24.72 2 35.5 43 -9.3 15.3
19:45 1008 29.77 837 24.72 2.1 35.7 43 -9.3 15.2
19:50 1008 29.77 837 24.72 2 35.7 43 -9.2 15.4
19:55 1008 29.77 837 24.72 2.1 35.7 44 -9 15.8
20:00 1008 29.77 837 24.72 2 35.6 44 -8.9 16
20:05 1008 29.77 837 24.72 2 35.6 45 -8.8 16.1
20:10 1008 29.77 837 24.72 1.9 35.4 46 -8.6 16.5
20:15 1008 29.77 837 24.72 1.8 35.2 47 -8.3 17.1
20:20 1008 29.77 837 24.72 1.6 35 46 -8.6 16.4
20:25 1008 29.77 837 24.72 1.6 34.9 46 -8.7 16.3
20:30 1008 29.77 837 24.72 1.7 35.1 45 -8.9 16
20:35 1008 29.77 837 24.72 1.7 35.1 45 -9.1 15.7
20:40 1008 29.77 837 24.72 1.7 35.1 48 -8 17.6
20:45 1008 29.77 837 24.72 1.4 34.5 49 -8.2 17.2
20:50 1008 29.77 837 24.72 1.4 34.6 48 -8.5 16.7
20:55 1008 29.77 837 24.72 1.5 34.6 48 -8.3 17.1
21:00 1008 29.77 837 24.72 1.6 34.8 48 -8.3 17
21:05 1008 29.77 837 24.72 1.5 34.8 47 -8.5 16.8
21:10 1008 29.77 837 24.72 1.6 34.8 48 -8.2 17.2
21:15 1008 29.77 837 24.72 1.5 34.7 48 -8.4 16.8
21:20 1008 29.77 837 24.72 1.5 34.6 48 -8.4 17
21:25 1008 29.77 837 24.72 1.3 34.4 49 -8.3 17
21:30 1008 29.77 837 24.72 1.1 34 50 -8.2 17.3
21:35 1008 29.77 837 24.72 1 33.8 51 -8.1 17.4
21:40 1008 29.77 837 24.72 1 33.8 50 -8.3 17
21:45 1008 29.77 837 24.72 1 33.8 51 -8.1 17.4
21:50 1008 29.77 837 24.72 0.8 33.5 53 -7.7 18.1
21:55 1008 29.77 837 24.72 0.7 33.2 52 -8 17.6
22:00 1008 29.77 837 24.72 0.7 33.2 53 -7.9 17.8
22:05 1008 29.77 837 24.72 0.7 33.2 52 -8.1 17.4
22:10 1008 29.77 837 24.72 0.8 33.4 52 -8 17.7
22:15 1008 29.77 837 24.72 0.7 33.3 53 -7.8 18
22:20 1008 29.77 837 24.72 0.6 33 54 -7.6 18.3
22:25 1008 29.77 837 24.72 0.5 33 54 -7.8 17.9
22:30 1008 29.77 837 24.72 0.6 33.1 52 -8.1 17.5
22:35 1008 29.77 837 24.72 0.7 33.2 52 -8 17.6
22:40 1008 29.77 837 24.72 0.7 33.3 52 -8 17.6
22:45 1008 29.77 837 24.72 0.6 33.1 53 -7.8 17.9
22:50 1008 29.77 837 24.72 0.7 33.2 53 -7.8 18
22:55 1008 29.77 837 24.72 0.6 33 54 -7.6 18.3
23:00 1008 29.77 837 24.72 0.6 33.1 51 -8.3 17.1
23:05 1008 29.77 837 24.72 1 33.8 51 -8 17.5
23:10 1008 29.77 837 24.72 1.2 34.2 48 -8.7 16.3
23:15 1008 29.77 837 24.72 1.7 35.1 44 -9.2 15.5
23:20 1008 29.77 837 24.72 2 35.5 44 -8.9 16
23:25 1008 29.77 837 24.72 1.9 35.4 46 -8.5 16.7
23:30 1008 29.77 837 24.72 1.9 35.4 45 -8.9 16
23:35 1008 29.77 837 24.72 1.9 35.4 46 -8.5 16.7
23:40 1008 29.77 837 24.72 1.8 35.2 48 -8.2 17.2
23:45 1008 29.77 837 24.72 1.5 34.8 49 -8.1 17.5
23:50 1008 29.77 838 24.75 1.4 34.6 49 -8.1 17.5
23:55 1008 29.77 838 24.75 1.4 34.5 50 -8 17.5
24:00 1008 29.77 838 24.75 1.3 34.3 50 -7.9 17.8